METAR Data

Data at: 2218 UTC 01 Dec 2021

METAR for:KHTO (East Hampton Arpt, NY, US)
Text:KHTO 012155Z AUTO 00000KT 10SM CLR 02/M03 A3014 RMK AO2 T00241027
Temperature: 2.4°C ( 36°F)
Dewpoint: -2.7°C ( 27°F) [RH = 69%]
Pressure (altimeter):30.14 inches Hg (1020.7 mb)
Winds:calm
Visibility:10 or more sm (16+ km)
Ceiling:at least 12,000 feet AGL
Clouds:sky clear below 12,000 feet AGL
QC Flag:automated observation with no human augmentation